Time;durP1;ratioP1;P1;durP2;ratioP2;P2;SDS_P1;SDS_P2;PMS_P1;PMS_P2;Temp;Humidity;BMP_temperature;BMP_pressure;BME280_temperature;BME280_humidity;BME280_pressure;Samples;Min_cycle;Max_cycle;Signal;HPM_P1;HPM_P2
2022/03/19 00:00:34;;;;;;;43.2;32;;;;;;;5.36;74.40918;955.7467;;;;
2022/03/19 00:03:02;;;;;;;43.2;31;;;;;;;5.29;75.00586;955.726;;;;
2022/03/19 00:05:39;;;;;;;41.3;31;;;;;;;5.27;74.85742;955.6675;;;;
2022/03/19 00:08:04;;;;;;;40.1;29.9;;;;;;;5.21;74.85645;955.6151;;;;
2022/03/19 00:10:36;;;;;;;40.1;29.9;;;;;;;5.19;74.95605;955.6699;;;;
2022/03/19 00:13:14;;;;;;;41.4;30.4;;;;;;;5.02;75.2168;955.61;;;;
2022/03/19 00:16:52;;;;;;;44.6;31.9;;;;;;;4.95;75.40918;955.5773;;;;
2022/03/19 00:19:10;;;;;;;43;30.7;;;;;;;5.08;75.13867;955.61;;;;
2022/03/19 00:21:51;;;;;;;39.8;29.6;;;;;;;4.89;75.55762;955.4973;;;;
2022/03/19 00:24:31;;;;;;;39.1;28.5;;;;;;;4.89;75.54395;955.4236;;;;
2022/03/19 00:27:12;;;;;;;40.5;29.5;;;;;;;4.77;75.92871;955.4947;;;;
2022/03/19 00:29:56;;;;;;;38.7;29.6;;;;;;;4.73;75.96777;955.4964;;;;
2022/03/19 00:32:26;;;;;;;38.2;28.6;;;;;;;4.72;75.88574;955.5413;;;;
2022/03/19 00:34:53;;;;;;;37.1;27.8;;;;;;;4.62;76.19434;955.4424;;;;
2022/03/19 00:37:23;;;;;;;39.5;28.7;;;;;;;4.59;76.66406;955.4617;;;;
2022/03/19 00:39:49;;;;;;;41.2;29.3;;;;;;;4.64;76.78516;955.4822;;;;
2022/03/19 00:42:14;;;;;;;38.2;28.6;;;;;;;4.71;76.21191;955.5015;;;;
2022/03/19 00:44:47;;;;;;;37.7;28.1;;;;;;;4.65;76.3457;955.5093;;;;
2022/03/19 00:47:11;;;;;;;36.1;27.7;;;;;;;4.52;76.18848;955.4294;;;;
2022/03/19 00:49:36;;;;;;;37.1;27.2;;;;;;;4.47;76.14453;955.5242;;;;
2022/03/19 00:52:04;;;;;;;39.4;28.5;;;;;;;4.56;75.7793;955.5057;;;;
2022/03/19 00:54:29;;;;;;;36.1;26.8;;;;;;;4.58;75.86035;955.4703;;;;
2022/03/19 00:56:54;;;;;;;35.6;27.5;;;;;;;4.47;76.17969;955.505;;;;
2022/03/19 00:59:20;;;;;;;36.8;26.6;;;;;;;4.32;76.27637;955.557;;;;
2022/03/19 01:01:45;;;;;;;38.5;27.8;;;;;;;4.43;75.91309;955.5338;;;;
2022/03/19 01:04:12;;;;;;;36.3;27.6;;;;;;;4.46;75.91992;955.4467;;;;
2022/03/19 01:06:37;;;;;;;36.8;26.5;;;;;;;4.24;76.31836;955.5429;;;;
2022/03/19 01:09:02;;;;;;;38.3;27.8;;;;;;;3.98;75.91113;955.533;;;;
2022/03/19 01:12:01;;;;;;;35;26.7;;;;;;;3.77;75.94336;955.5579;;;;
2022/03/19 01:14:26;;;;;;;37.9;28;;;;;;;3.36;78.03613;955.5731;;;;
2022/03/19 01:16:53;;;;;;;41.5;30.4;;;;;;;3.27;79.1875;955.5883;;;;
2022/03/19 01:19:52;;;;;;;40;30.1;;;;;;;3.28;79.62695;955.6047;;;;
2022/03/19 01:21:46;;;;;;;44.4;33.1;;;;;;;3.09;81.0498;955.5754;;;;
2022/03/19 01:24:15;;;;;;;44.3;31.7;;;;;;;3.21;80.91504;955.5397;;;;
2022/03/19 01:26:41;;;;;;;45.1;32.3;;;;;;;3.25;81.14648;955.6018;;;;
2022/03/19 01:29:06;;;;;;;44.8;33.2;;;;;;;3.05;81.63574;955.5691;;;;
2022/03/19 01:31:31;;;;;;;46.3;33;;;;;;;3.01;82.25586;955.5567;;;;
2022/03/19 01:33:57;;;;;;;43.9;32.3;;;;;;;3.03;82.375;955.6223;;;;
2022/03/19 01:36:22;;;;;;;43;32.3;;;;;;;3.1;81.35254;955.5602;;;;
2022/03/19 01:38:48;;;;;;;44.6;32.6;;;;;;;3.09;80.95996;955.4937;;;;
2022/03/19 01:41:13;;;;;;;45.4;31.7;;;;;;;3.09;81.19434;955.4509;;;;
2022/03/19 01:43:40;;;;;;;42.7;31.3;;;;;;;3.14;81.32813;955.5092;;;;
2022/03/19 01:46:06;;;;;;;44.6;31.2;;;;;;;3.11;81.85059;955.4446;;;;
2022/03/19 01:48:32;;;;;;;43.3;31.5;;;;;;;3.17;82.04199;955.4149;;;;
2022/03/19 01:50:58;;;;;;;41.1;30.7;;;;;;;3.04;82.05078;955.3828;;;;
2022/03/19 01:53:23;;;;;;;44.4;31.5;;;;;;;2.92;82.76758;955.3487;;;;
2022/03/19 01:55:50;;;;;;;45.7;32.1;;;;;;;3.08;82.1123;955.3425;;;;
2022/03/19 01:58:16;;;;;;;43.6;32.6;;;;;;;3.01;82.5625;955.3408;;;;
2022/03/19 02:00:43;;;;;;;41.6;30.1;;;;;;;3.2;81.53125;955.255;;;;
2022/03/19 02:03:08;;;;;;;40.1;28.9;;;;;;;3.18;81.26953;955.2471;;;;
2022/03/19 02:05:33;;;;;;;39.7;28.8;;;;;;;3.18;81.04297;955.2758;;;;
2022/03/19 02:07:59;;;;;;;40.2;28.5;;;;;;;3.17;80.76074;955.2231;;;;
2022/03/19 02:10:24;;;;;;;40.4;29.6;;;;;;;2.95;81.53809;955.1961;;;;
2022/03/19 02:12:52;;;;;;;41.9;30.1;;;;;;;2.96;82.38281;955.1578;;;;
2022/03/19 02:15:16;;;;;;;40.7;29.8;;;;;;;2.87;83.01465;955.1358;;;;
2022/03/19 02:17:44;;;;;;;40;28.7;;;;;;;2.81;82.82422;955.1141;;;;
2022/03/19 02:20:09;;;;;;;39.2;29.6;;;;;;;2.89;82.67188;955.0625;;;;
2022/03/19 02:22:34;;;;;;;39.3;29.5;;;;;;;2.91;82.11523;955.0637;;;;
2022/03/19 02:27:28;;;;;;;38.7;29.3;;;;;;;3.01;82.16602;955.0358;;;;
2022/03/19 02:29:53;;;;;;;41.5;31.2;;;;;;;3.04;81.8584;955.0167;;;;
2022/03/19 02:32:19;;;;;;;42.5;30.8;;;;;;;3.07;81.71777;954.9258;;;;
2022/03/19 02:34:44;;;;;;;40.3;29.8;;;;;;;3.09;81.25195;954.9009;;;;
2022/03/19 02:37:10;;;;;;;41.7;30.9;;;;;;;3.1;81.09473;954.9519;;;;
2022/03/19 02:39:35;;;;;;;41.1;29.9;;;;;;;3.15;80.8584;954.9042;;;;
2022/03/19 02:42:01;;;;;;;39.7;29.3;;;;;;;3.1;80.96191;954.934;;;;
2022/03/19 02:44:26;;;;;;;42.9;31.2;;;;;;;3.03;81.74512;954.9272;;;;
2022/03/19 02:46:52;;;;;;;44.9;32.2;;;;;;;3.04;81.86035;954.9279;;;;
2022/03/19 02:49:17;;;;;;;42.2;30.7;;;;;;;3.06;81.72754;954.8942;;;;
2022/03/19 02:51:44;;;;;;;42.6;31.6;;;;;;;2.98;81.71387;954.89;;;;
2022/03/19 02:54:10;;;;;;;46;31.8;;;;;;;2.89;82.30176;954.9344;;;;
2022/03/19 02:56:35;;;;;;;45.1;30.9;;;;;;;3;81.12109;954.9407;;;;
2022/03/19 02:59:01;;;;;;;39.7;29.4;;;;;;;2.98;80.99414;954.8997;;;;
2022/03/19 03:01:27;;;;;;;39.4;29;;;;;;;2.92;80.625;954.9244;;;;
2022/03/19 03:03:52;;;;;;;38.5;28.1;;;;;;;2.83;80.92188;954.8817;;;;
2022/03/19 03:06:20;;;;;;;38.4;28.2;;;;;;;2.8;81.18359;954.9194;;;;
2022/03/19 03:08:44;;;;;;;37;27.6;;;;;;;2.92;80.61328;954.9506;;;;
2022/03/19 03:11:10;;;;;;;40.8;29.2;;;;;;;2.83;80.94434;954.9044;;;;
2022/03/19 03:13:35;;;;;;;38.4;29.5;;;;;;;2.87;80.95117;954.8997;;;;
2022/03/19 03:16:10;;;;;;;41.9;28.7;;;;;;;2.7;81.64648;954.8466;;;;
2022/03/19 03:18:36;;;;;;;40.1;29;;;;;;;2.52;82.27344;954.7576;;;;
2022/03/19 03:21:02;;;;;;;41.9;29.6;;;;;;;2.32;83.36621;954.7344;;;;
2022/03/19 03:23:27;;;;;;;40.3;29.3;;;;;;;;;;;;;
2022/03/19 03:25:52;;;;;;;42.8;29.9;;;;;;;;;;;;;
2022/03/19 03:28:18;;;;;;;41.7;29.6;;;;;;;;;;;;;
2022/03/19 03:30:42;;;;;;;43.4;31.1;;;;;;;;;;;;;
2022/03/19 03:33:08;;;;;;;42.7;30.9;;;;;;;;;;;;;
2022/03/19 03:35:33;;;;;;;41.6;30.1;;;;;;;;;;;;;
2022/03/19 03:37:58;;;;;;;42.7;30.5;;;;;;;;;;;;;
2022/03/19 03:40:24;;;;;;;42.1;30.8;;;;;;;;;;;;;
2022/03/19 03:42:49;;;;;;;42.3;30.9;;;;;;;;;;;;;
2022/03/19 03:45:16;;;;;;;42.8;30.9;;;;;;;;;;;;;
2022/03/19 03:47:41;;;;;;;42.1;30.8;;;;;;;;;;;;;
2022/03/19 03:50:07;;;;;;;44.7;31.4;;;;;;;;;;;;;
2022/03/19 03:52:32;;;;;;;46;32.3;;;;;;;;;;;;;
2022/03/19 03:54:57;;;;;;;42.5;31.1;;;;;;;;;;;;;
2022/03/19 03:57:23;;;;;;;41.8;29;;;;;;;;;;;;;
2022/03/19 03:59:48;;;;;;;39.6;29;;;;;;;;;;;;;
2022/03/19 04:02:31;;;;;;;41.6;29.9;;;;;;;2.16;81.94531;954.7131;;;;
2022/03/19 04:04:56;;;;;;;40;29.2;;;;;;;1.73;83.80957;954.6866;;;;
2022/03/19 04:07:21;;;;;;;44.2;30.5;;;;;;;1.87;84.33105;954.6479;;;;
2022/03/19 04:09:46;;;;;;;43.6;31.6;;;;;;;1.83;84.63477;954.6138;;;;
2022/03/19 04:12:14;;;;;;;43.6;32;;;;;;;1.85;84.39258;954.5676;;;;
2022/03/19 04:14:37;;;;;;;41.6;30.4;;;;;;;1.91;84.00195;954.6262;;;;
2022/03/19 04:17:04;;;;;;;42.5;31.8;;;;;;;1.75;84.17188;954.6283;;;;
2022/03/19 04:19:30;;;;;;;46.8;31.9;;;;;;;1.59;84.15234;954.7051;;;;
2022/03/19 04:21:55;;;;;;;42.5;31.7;;;;;;;1.54;84.34277;954.6394;;;;
2022/03/19 04:24:20;;;;;;;44.9;31.1;;;;;;;;;;;;;
2022/03/19 04:26:45;;;;;;;46.7;31.3;;;;;;;;;;;;;
2022/03/19 04:29:11;;;;;;;46.2;32.3;;;;;;;;;;;;;
2022/03/19 04:31:36;;;;;;;43;30.9;;;;;;;;;;;;;
2022/03/19 04:34:03;;;;;;;47.4;32.1;;;;;;;;;;;;;
2022/03/19 04:36:36;;;;;;;46.4;32.9;;;;;;;;;;;;;
2022/03/19 04:38:53;;;;;;;44.8;32.6;;;;;;;;;;;;;
2022/03/19 04:41:18;;;;;;;45.3;32.2;;;;;;;;;;;;;
2022/03/19 04:43:43;;;;;;;43.8;31.3;;;;;;;;;;;;;
2022/03/19 04:46:09;;;;;;;45.6;32.9;;;;;;;;;;;;;
2022/03/19 04:48:34;;;;;;;45.2;32.5;;;;;;;;;;;;;
2022/03/19 04:50:59;;;;;;;47.8;33;;;;;;;;;;;;;
2022/03/19 04:53:24;;;;;;;41.1;29.8;;;;;;;;;;;;;
2022/03/19 04:55:51;;;;;;;45.4;31.8;;;;;;;;;;;;;
2022/03/19 04:58:16;;;;;;;44.9;32.7;;;;;;;;;;;;;
2022/03/19 05:00:42;;;;;;;45.9;32.4;;;;;;;;;;;;;
2022/03/19 05:03:07;;;;;;;43.2;31.4;;;;;;;;;;;;;
2022/03/19 05:05:32;;;;;;;47.2;33.4;;;;;;;;;;;;;
2022/03/19 05:07:58;;;;;;;47.6;31.8;;;;;;;;;;;;;
2022/03/19 05:12:48;;;;;;;52.6;36.2;;;;;;;;;;;;;
2022/03/19 05:15:14;;;;;;;47.7;34.9;;;;;;;;;;;;;
2022/03/19 05:17:39;;;;;;;46.6;33.9;;;;;;;;;;;;;
2022/03/19 05:20:04;;;;;;;50.2;34.9;;;;;;;;;;;;;
2022/03/19 05:22:29;;;;;;;48.2;33.6;;;;;;;;;;;;;
2022/03/19 05:24:54;;;;;;;48.7;34.2;;;;;;;;;;;;;
2022/03/19 05:27:22;;;;;;;47.7;33.1;;;;;;;;;;;;;
2022/03/19 05:30:11;;;;;;;48.1;33.4;;;;;;;;;;;;;
2022/03/19 05:32:21;;;;;;;48.2;32.8;;;;;;;;;;;;;
2022/03/19 05:34:47;;;;;;;51.5;34.7;;;;;;;;;;;;;
2022/03/19 05:37:12;;;;;;;53.5;36.6;;;;;;;;;;;;;
2022/03/19 05:39:37;;;;;;;53.4;35.6;;;;;;;;;;;;;
2022/03/19 05:42:02;;;;;;;47.2;33.8;;;;;;;;;;;;;
2022/03/19 05:44:28;;;;;;;47.8;34.2;;;;;;;;;;;;;
2022/03/19 05:46:53;;;;;;;46.7;33.2;;;;;;;;;;;;;
2022/03/19 05:49:19;;;;;;;50.4;33.9;;;;;;;;;;;;;
2022/03/19 05:51:45;;;;;;;47.7;33.8;;;;;;;;;;;;;
2022/03/19 05:54:11;;;;;;;45.1;32.7;;;;;;;;;;;;;
2022/03/19 05:56:36;;;;;;;45.2;33;;;;;;;;;;;;;
2022/03/19 05:59:02;;;;;;;51.9;33.8;;;;;;;;;;;;;
2022/03/19 06:01:27;;;;;;;47.1;33.1;;;;;;;;;;;;;
2022/03/19 06:04:00;;;;;;;43.2;31.5;;;;;;;;;;;;;
2022/03/19 06:06:26;;;;;;;40.4;30.6;;;;;;;;;;;;;
2022/03/19 06:08:51;;;;;;;42.8;29.8;;;;;;;;;;;;;
2022/03/19 06:11:18;;;;;;;38.1;27.2;;;;;;;;;;;;;
2022/03/19 06:13:43;;;;;;;38.3;26.7;;;;;;;;;;;;;
2022/03/19 06:16:11;;;;;;;35.6;25.5;;;;;;;;;;;;;
2022/03/19 06:19:00;;;;;;;35.5;25.2;;;;;;;;;;;;;
2022/03/19 06:21:20;;;;;;;36;26.6;;;;;;;;;;;;;
2022/03/19 06:23:47;;;;;;;35;26.1;;;;;;;;;;;;;
2022/03/19 06:26:12;;;;;;;36.8;26.9;;;;;;;;;;;;;
2022/03/19 06:28:37;;;;;;;35.9;25.4;;;;;;;;;;;;;
2022/03/19 06:31:02;;;;;;;33.4;24.3;;;;;;;;;;;;;
2022/03/19 06:33:27;;;;;;;34.6;25.3;;;;;;;;;;;;;
2022/03/19 06:38:17;;;;;;;31.1;24.1;;;;;;;;;;;;;
2022/03/19 06:40:43;;;;;;;32.4;23.8;;;;;;;;;;;;;
2022/03/19 06:43:08;;;;;;;31.6;22.7;;;;;;;;;;;;;
2022/03/19 06:45:33;;;;;;;32.5;23.2;;;;;;;;;;;;;
2022/03/19 06:47:58;;;;;;;32.2;23.6;;;;;;;;;;;;;
2022/03/19 06:50:23;;;;;;;34.3;24.3;;;;;;;;;;;;;
2022/03/19 06:52:49;;;;;;;33.1;23.6;;;;;;;;;;;;;
2022/03/19 06:55:14;;;;;;;33.8;24.3;;;;;;;;;;;;;
2022/03/19 06:57:39;;;;;;;33;23.5;;;;;;;;;;;;;
2022/03/19 07:00:05;;;;;;;34.6;25;;;;;;;;;;;;;
2022/03/19 07:02:30;;;;;;;32.7;24.5;;;;;;;;;;;;;
2022/03/19 07:04:55;;;;;;;31.4;24.1;;;;;;;;;;;;;
2022/03/19 07:07:20;;;;;;;31.3;23.3;;;;;;;;;;;;;
2022/03/19 07:09:45;;;;;;;29.2;22.5;;;;;;;;;;;;;
2022/03/19 07:12:11;;;;;;;33.4;22.9;;;;;;;;;;;;;
2022/03/19 07:14:35;;;;;;;30.5;23.7;;;;;;;;;;;;;
2022/03/19 07:17:01;;;;;;;29;21.6;;;;;;;;;;;;;
2022/03/19 07:19:26;;;;;;;29.4;23.1;;;;;;;;;;;;;
2022/03/19 07:21:52;;;;;;;29.8;22;;;;;;;;;;;;;
2022/03/19 07:24:17;;;;;;;30.5;22;;;;;;;;;;;;;
2022/03/19 07:26:42;;;;;;;28.4;22;;;;;;;;;;;;;
2022/03/19 07:29:07;;;;;;;29.6;22;;;;;;;;;;;;;
2022/03/19 07:31:35;;;;;;;28.8;22.2;;;;;;;;;;;;;
2022/03/19 07:34:00;;;;;;;30.2;22.8;;;;;;;;;;;;;
2022/03/19 07:36:25;;;;;;;31.4;22.1;;;;;;;;;;;;;
2022/03/19 07:38:50;;;;;;;31.8;23.6;;;;;;;;;;;;;
2022/03/19 07:43:41;;;;;;;32.2;23.6;;;;;;;;;;;;;
2022/03/19 07:46:05;;;;;;;32.1;22.8;;;;;;;;;;;;;
2022/03/19 07:48:30;;;;;;;28.9;22.3;;;;;;;;;;;;;
2022/03/19 07:50:56;;;;;;;28.7;21.9;;;;;;;;;;;;;
2022/03/19 07:53:21;;;;;;;29.2;21.5;;;;;;;;;;;;;
2022/03/19 07:55:46;;;;;;;31.4;21.6;;;;;;;;;;;;;
2022/03/19 07:58:12;;;;;;;30;21.7;;;;;;;;;;;;;
2022/03/19 08:00:37;;;;;;;27.1;20.7;;;;;;;;;;;;;
2022/03/19 08:03:03;;;;;;;25.9;20.3;;;;;;;;;;;;;
2022/03/19 08:05:28;;;;;;;28.2;21.2;;;;;;;;;;;;;
2022/03/19 08:07:53;;;;;;;27;21.4;;;;;;;;;;;;;
2022/03/19 08:10:18;;;;;;;26.5;20.5;;;;;;;;;;;;;
2022/03/19 08:12:44;;;;;;;29.1;21.3;;;;;;;;;;;;;
2022/03/19 08:15:10;;;;;;;28.4;20.3;;;;;;;;;;;;;
2022/03/19 08:17:36;;;;;;;27.3;20.6;;;;;;;;;;;;;
2022/03/19 08:20:00;;;;;;;26;20;;;;;;;;;;;;;
2022/03/19 08:22:26;;;;;;;24.9;20.3;;;;;;;;;;;;;
2022/03/19 08:24:52;;;;;;;26.4;20;;;;;;;;;;;;;
2022/03/19 08:27:16;;;;;;;27.6;20.1;;;;;;;;;;;;;
2022/03/19 08:29:41;;;;;;;25;19;;;;;;;;;;;;;
2022/03/19 08:32:08;;;;;;;23.9;19.7;;;;;;;;;;;;;
2022/03/19 08:34:32;;;;;;;26.7;19.9;;;;;;;;;;;;;
2022/03/19 08:36:59;;;;;;;25.5;19.6;;;;;;;;;;;;;
2022/03/19 08:41:49;;;;;;;26.7;21.2;;;;;;;;;;;;;
2022/03/19 08:44:14;;;;;;;24.7;20.6;;;;;;;;;;;;;
2022/03/19 08:46:39;;;;;;;29.5;21.8;;;;;;;;;;;;;
2022/03/19 08:49:04;;;;;;;27;21.2;;;;;;;;;;;;;
2022/03/19 08:51:41;;;;;;;27.4;20.7;;;;;;;;;;;;;
2022/03/19 08:54:00;;;;;;;27;20.6;;;;;;;;;;;;;
2022/03/19 08:56:26;;;;;;;26.3;21.1;;;;;;;;;;;;;
2022/03/19 08:58:51;;;;;;;26.8;20.8;;;;;;;;;;;;;
2022/03/19 09:01:16;;;;;;;25.9;20.5;;;;;;;;;;;;;
2022/03/19 09:03:41;;;;;;;26.4;20.2;;;;;;;;;;;;;
2022/03/19 09:06:06;;;;;;;25.7;19.9;;;;;;;;;;;;;
2022/03/19 09:08:31;;;;;;;26.3;20.5;;;;;;;;;;;;;
2022/03/19 09:10:56;;;;;;;24.1;19.8;;;;;;;;;;;;;
2022/03/19 09:13:22;;;;;;;23.9;20;;;;;;;;;;;;;
2022/03/19 09:15:50;;;;;;;24.9;19;;;;;;;;;;;;;
2022/03/19 09:18:16;;;;;;;24.8;19.9;;;;;;;;;;;;;
2022/03/19 09:20:43;;;;;;;24.6;19.6;;;;;;;;;;;;;
2022/03/19 09:23:08;;;;;;;28.4;19.9;;;;;;;;;;;;;
2022/03/19 09:25:33;;;;;;;25;20.4;;;;;;;;;;;;;
2022/03/19 09:27:58;;;;;;;26.7;20.2;;;;;;;;;;;;;
2022/03/19 09:30:23;;;;;;;28.3;20.9;;;;;;;;;;;;;
2022/03/19 09:32:48;;;;;;;28.9;21.2;;;;;;;;;;;;;
2022/03/19 09:35:16;;;;;;;27.7;20.2;;;;;;;;;;;;;
2022/03/19 09:37:40;;;;;;;27.5;21.5;;;;;;;;;;;;;
2022/03/19 09:40:06;;;;;;;26.7;20.2;;;;;;;;;;;;;
2022/03/19 09:42:32;;;;;;;26.5;20.5;;;;;;;;;;;;;
2022/03/19 09:45:00;;;;;;;27.9;21.4;;;;;;;;;;;;;
2022/03/19 09:47:25;;;;;;;24.2;20.3;;;;;;;;;;;;;
2022/03/19 09:49:51;;;;;;;27.9;20.4;;;;;;;;;;;;;
2022/03/19 09:52:15;;;;;;;29;20.9;;;;;;;;;;;;;
2022/03/19 09:54:41;;;;;;;26.6;19.7;;;;;;;;;;;;;
2022/03/19 09:57:06;;;;;;;27.4;20.6;;;;;;;;;;;;;
2022/03/19 09:59:36;;;;;;;25.9;20.8;;;;;;;;;;;;;
2022/03/19 10:01:57;;;;;;;26.7;20.1;;;;;;;;;;;;;
2022/03/19 10:04:22;;;;;;;27.7;22.1;;;;;;;;;;;;;
2022/03/19 10:09:13;;;;;;;28.2;21;;;;;;;;;;;;;
2022/03/19 10:11:38;;;;;;;26.5;20.1;;;;;;;;;;;;;
2022/03/19 10:14:03;;;;;;;25.7;21.2;;;;;;;;;;;;;
2022/03/19 10:16:28;;;;;;;26.9;20.3;;;;;;;;;;;;;
2022/03/19 10:18:54;;;;;;;27.9;19.9;;;;;;;;;;;;;
2022/03/19 10:21:19;;;;;;;27.6;21.5;;;;;;;;;;;;;
2022/03/19 10:23:44;;;;;;;27.2;20.9;;;;;;;;;;;;;
2022/03/19 10:26:11;;;;;;;26.4;20.4;;;;;;;;;;;;;
2022/03/19 10:28:35;;;;;;;29;20.6;;;;;;;;;;;;;
2022/03/19 10:31:00;;;;;;;25.8;21;;;;;;;;;;;;;
2022/03/19 10:33:25;;;;;;;25.8;20.2;;;;;;;;;;;;;
2022/03/19 10:35:50;;;;;;;27.4;20.6;;;;;;;;;;;;;
2022/03/19 10:38:15;;;;;;;25.1;21.6;;;;;;;;;;;;;
2022/03/19 10:40:40;;;;;;;29.3;22.7;;;;;;;;;;;;;
2022/03/19 10:43:06;;;;;;;29;22;;;;;;;;;;;;;
2022/03/19 10:45:31;;;;;;;27.2;21.6;;;;;;;;;;;;;
2022/03/19 10:47:56;;;;;;;27.2;21.8;;;;;;;;;;;;;
2022/03/19 10:50:22;;;;;;;28;20.4;;;;;;;;;;;;;
2022/03/19 10:52:47;;;;;;;28.1;21.6;;;;;;;;;;;;;
2022/03/19 10:55:14;;;;;;;25.9;20.5;;;;;;;;;;;;;
2022/03/19 10:57:39;;;;;;;25.3;20;;;;;;;;;;;;;
2022/03/19 11:00:04;;;;;;;25.5;21;;;;;;;;;;;;;
2022/03/19 11:02:30;;;;;;;25;20.6;;;;;;;;;;;;;
2022/03/19 11:04:54;;;;;;;25.6;20.8;;;;;;;;;;;;;
2022/03/19 11:07:20;;;;;;;28.2;21.6;;;;;;;;;;;;;
2022/03/19 11:09:45;;;;;;;25.6;20.7;;;;;;;;;;;;;
2022/03/19 11:12:13;;;;;;;24.8;20.6;;;;;;;;;;;;;
2022/03/19 11:14:38;;;;;;;27.8;21.7;;;;;;;;;;;;;
2022/03/19 11:19:28;;;;;;;26.1;20.7;;;;;;;;;;;;;
2022/03/19 11:21:53;;;;;;;24.6;20.3;;;;;;;;;;;;;
2022/03/19 11:24:22;;;;;;;26.5;21.3;;;;;;;;;;;;;
2022/03/19 11:26:44;;;;;;;28;21.2;;;;;;;;;;;;;
2022/03/19 11:29:09;;;;;;;26.5;20.8;;;;;;;;;;;;;
2022/03/19 11:31:35;;;;;;;25.6;20.6;;;;;;;;;;;;;
2022/03/19 11:34:03;;;;;;;28.6;21.4;;;;;;;;;;;;;
2022/03/19 11:36:26;;;;;;;26.7;20.5;;;;;;;;;;;;;
2022/03/19 11:38:51;;;;;;;26.5;20.4;;;;;;;;;;;;;
2022/03/19 11:41:16;;;;;;;25.8;20.9;;;;;;;;;;;;;
2022/03/19 11:43:41;;;;;;;28.6;21.2;;;;;;;;;;;;;
2022/03/19 11:46:14;;;;;;;26.7;20.8;;;;;;;;;;;;;
2022/03/19 11:48:50;;;;;;;26.3;20.7;;;;;;;;;;;;;
2022/03/19 11:51:41;;;;;;;28.2;20.9;;;;;;;;;;;;;
2022/03/19 11:54:09;;;;;;;26;20.7;;;;;;;;;;;;;
2022/03/19 11:56:32;;;;;;;28;21.4;;;;;;;;;;;;;
2022/03/19 11:58:58;;;;;;;25.6;20.3;;;;;;;;;;;;;
2022/03/19 12:01:23;;;;;;;28.5;21.2;;;;;;;;;;;;;
2022/03/19 12:03:48;;;;;;;28.7;21.8;;;;;;;;;;;;;
2022/03/19 12:06:13;;;;;;;27.8;21.1;;;;;;;;;;;;;
2022/03/19 12:08:38;;;;;;;26;21.3;;;;;;;;;;;;;
2022/03/19 12:11:04;;;;;;;28.2;22.5;;;;;;;;;;;;;
2022/03/19 12:13:30;;;;;;;30.1;21;;;;;;;;;;;;;
2022/03/19 12:15:56;;;;;;;28.1;21.2;;;;;;;;;;;;;
2022/03/19 12:18:22;;;;;;;28.5;21;;;;;;;;;;;;;
2022/03/19 12:20:47;;;;;;;27.9;21.5;;;;;;;;;;;;;
2022/03/19 12:23:12;;;;;;;29.6;22.2;;;;;;;;;;;;;
2022/03/19 12:25:37;;;;;;;28.3;21.9;;;;;;;;;;;;;
2022/03/19 12:28:02;;;;;;;28.5;22.2;;;;;;;;;;;;;
2022/03/19 12:30:27;;;;;;;27.6;21.5;;;;;;;;;;;;;
2022/03/19 12:32:56;;;;;;;27.1;22;;;;;;;;;;;;;
2022/03/19 12:35:18;;;;;;;26;20.6;;;;;;;;;;;;;
2022/03/19 12:37:43;;;;;;;27.8;21.7;;;;;;;;;;;;;
2022/03/19 12:40:08;;;;;;;26.5;20.5;;;;;;;;;;;;;
2022/03/19 12:42:33;;;;;;;27.1;20.3;;;;;;;;;;;;;
2022/03/19 12:44:59;;;;;;;28.4;21.2;;;;;;;;;;;;;
2022/03/19 12:47:23;;;;;;;27.5;21.3;;;;;;;;;;;;;
2022/03/19 12:49:49;;;;;;;27.4;21.4;;;;;;;;;;;;;
2022/03/19 12:52:13;;;;;;;32.2;21.9;;;;;;;;;;;;;
2022/03/19 12:54:39;;;;;;;28.5;21.9;;;;;;;;;;;;;
2022/03/19 12:57:04;;;;;;;27.6;20.9;;;;;;;;;;;;;
2022/03/19 12:59:31;;;;;;;30.4;22.1;;;;;;;;;;;;;
2022/03/19 13:01:56;;;;;;;26.3;21.6;;;;;;;;;;;;;
2022/03/19 13:04:22;;;;;;;27.8;20.8;;;;;;;;;;;;;
2022/03/19 13:06:47;;;;;;;29.8;21.8;;;;;;;;;;;;;
2022/03/19 13:09:12;;;;;;;29.8;21.7;;;;;;;;;;;;;
2022/03/19 13:11:38;;;;;;;29.1;22.1;;;;;;;;;;;;;
2022/03/19 13:14:03;;;;;;;27.4;22.2;;;;;;;;;;;;;
2022/03/19 13:16:30;;;;;;;31.9;23.5;;;;;;;;;;;;;
2022/03/19 13:18:54;;;;;;;29.6;23;;;;;;;;;;;;;
2022/03/19 13:21:21;;;;;;;30.2;22.8;;;;;;;;;;;;;
2022/03/19 13:23:45;;;;;;;30.3;22.6;;;;;;;;;;;;;
2022/03/19 13:26:11;;;;;;;29.7;22.3;;;;;;;;;;;;;
2022/03/19 13:28:36;;;;;;;29.6;22.2;;;;;;;;;;;;;
2022/03/19 13:31:02;;;;;;;29.5;23.4;;;;;;;;;;;;;
2022/03/19 13:33:27;;;;;;;31.8;24.5;;;;;;;;;;;;;
2022/03/19 13:35:52;;;;;;;33.9;25.7;;;;;;;;;;;;;
2022/03/19 13:38:17;;;;;;;34.8;25.6;;;;;;;;;;;;;
2022/03/19 13:40:42;;;;;;;34.4;25.8;;;;;;;;;;;;;
2022/03/19 13:43:07;;;;;;;35.6;26.5;;;;;;;;;;;;;
2022/03/19 13:45:33;;;;;;;33.1;24.8;;;;;;;;;;;;;
2022/03/19 13:47:58;;;;;;;33.5;25.4;;;;;;;;;;;;;
2022/03/19 13:50:23;;;;;;;32.9;25.5;;;;;;;;;;;;;
2022/03/19 13:52:49;;;;;;;35.6;25.9;;;;;;;;;;;;;
2022/03/19 13:55:13;;;;;;;33.6;24.7;;;;;;;;;;;;;
2022/03/19 13:57:38;;;;;;;31.6;24.9;;;;;;;;;;;;;
2022/03/19 14:00:03;;;;;;;35;26.9;;;;;;;;;;;;;
2022/03/19 14:02:29;;;;;;;35.5;26.9;;;;;;;;;;;;;
2022/03/19 14:04:54;;;;;;;37.8;28.1;;;;;;;;;;;;;
2022/03/19 14:07:20;;;;;;;35.6;27.2;;;;;;;;;;;;;
2022/03/19 14:09:45;;;;;;;39.7;27;;;;;;;;;;;;;
2022/03/19 14:12:11;;;;;;;54.8;27.9;;;;;;;;;;;;;
2022/03/19 14:14:36;;;;;;;39.9;26.2;;;;;;;;;;;;;
2022/03/19 14:17:01;;;;;;;36.4;27.7;;;;;;;;;;;;;
2022/03/19 14:19:26;;;;;;;34.3;26.2;;;;;;;;;;;;;
2022/03/19 14:21:51;;;;;;;33.4;25.8;;;;;;;;;;;;;
2022/03/19 14:24:18;;;;;;;36.3;27.1;;;;;;;;;;;;;
2022/03/19 14:26:43;;;;;;;35.6;27.4;;;;;;;;;;;;;
2022/03/19 14:29:09;;;;;;;38.3;26.7;;;;;;;;;;;;;
2022/03/19 14:31:37;;;;;;;37.4;25.9;;;;;;;;;;;;;
2022/03/19 14:33:59;;;;;;;34.8;26.7;;;;;;;;;;;;;
2022/03/19 14:36:26;;;;;;;36.8;26.3;;;;;;;;;;;;;
2022/03/19 14:38:52;;;;;;;36.9;26.9;;;;;;;;;;;;;
2022/03/19 14:41:15;;;;;;;37.6;28.2;;;;;;;;;;;;;
2022/03/19 14:43:40;;;;;;;36.4;26.2;;;;;;;;;;;;;
2022/03/19 14:46:07;;;;;;;38.6;27;;;;;;;;;;;;;
2022/03/19 14:48:30;;;;;;;36.9;26.7;;;;;;;;;;;;;
2022/03/19 14:50:56;;;;;;;38.7;26.6;;;;;;;;;;;;;
2022/03/19 14:53:20;;;;;;;37.2;26.1;;;;;;;;;;;;;
2022/03/19 14:55:49;;;;;;;34.4;26;;;;;;;;;;;;;
2022/03/19 14:58:13;;;;;;;34.3;26.3;;;;;;;;;;;;;
2022/03/19 15:00:38;;;;;;;34.7;25.9;;;;;;;;;;;;;
2022/03/19 15:03:03;;;;;;;34.8;26.3;;;;;;;;;;;;;
2022/03/19 15:05:31;;;;;;;35.3;26.5;;;;;;;;;;;;;
2022/03/19 15:07:56;;;;;;;35.4;26.3;;;;;;;;;;;;;
2022/03/19 15:10:22;;;;;;;36.9;25.8;;;;;;;;;;;;;
2022/03/19 15:12:47;;;;;;;51.1;28.9;;;;;;;;;;;;;
2022/03/19 15:15:15;;;;;;;34.7;26.1;;;;;;;;;;;;;
2022/03/19 15:17:39;;;;;;;33.5;25.5;;;;;;;;;;;;;
2022/03/19 15:20:04;;;;;;;34.2;26.1;;;;;;;;;;;;;
2022/03/19 15:22:29;;;;;;;39;25.6;;;;;;;;;;;;;
2022/03/19 15:24:54;;;;;;;38.6;26.2;;;;;;;;;;;;;
2022/03/19 15:27:19;;;;;;;36.6;26.6;;;;;;;;;;;;;
2022/03/19 15:30:07;;;;;;;36;27;;;;;;;;;;;;;
2022/03/19 15:32:39;;;;;;;37.5;27.4;;;;;;;;;;;;;
2022/03/19 15:35:11;;;;;;;36.5;26.7;;;;;;;;;;;;;
2022/03/19 15:37:43;;;;;;;34.4;25.2;;;;;;;;;;;;;
2022/03/19 15:40:15;;;;;;;34.5;26.1;;;;;;;;;;;;;
2022/03/19 15:42:48;;;;;;;34.8;25.1;;;;;;;;;;;;;
2022/03/19 15:45:20;;;;;;;35.8;26.4;;;;;;;;;;;;;
2022/03/19 15:47:52;;;;;;;35.2;26.3;;;;;;;;;;;;;
2022/03/19 15:50:24;;;;;;;35.7;26.5;;;;;;;;;;;;;
2022/03/19 15:52:57;;;;;;;35.6;26.9;;;;;;;;;;;;;
2022/03/19 15:55:29;;;;;;;36.8;26.7;;;;;;;;;;;;;
2022/03/19 15:57:54;;;;;;;36.2;27.2;;;;;;;;;;;;;
2022/03/19 16:00:19;;;;;;;37.5;27;;;;;;;;;;;;;
2022/03/19 16:02:46;;;;;;;40.1;28.1;;;;;;;;;;;;;
2022/03/19 16:05:11;;;;;;;37.9;27.9;;;;;;;;;;;;;
2022/03/19 16:07:36;;;;;;;36.2;27.8;;;;;;;;;;;;;
2022/03/19 16:10:01;;;;;;;38.8;28.4;;;;;;;;;;;;;
2022/03/19 16:12:28;;;;;;;39;28.5;;;;;;;;;;;;;
2022/03/19 16:14:53;;;;;;;37.3;27.4;;;;;;;;;;;;;
2022/03/19 16:17:18;;;;;;;37.8;27.9;;;;;;;;;;;;;
2022/03/19 16:19:43;;;;;;;38.3;29.3;;;;;;;;;;;;;
2022/03/19 16:22:09;;;;;;;40;30;;;;;;;;;;;;;
2022/03/19 16:24:34;;;;;;;37.7;28.8;;;;;;;;;;;;;
2022/03/19 16:26:59;;;;;;;40.2;29.3;;;;;;;;;;;;;
2022/03/19 16:29:25;;;;;;;41;29.8;;;;;;;;;;;;;
2022/03/19 16:31:50;;;;;;;39.8;29;;;;;;;;;;;;;
2022/03/19 16:34:15;;;;;;;39.7;29.8;;;;;;;;;;;;;
2022/03/19 16:36:40;;;;;;;37.2;29.2;;;;;;;;;;;;;
2022/03/19 16:39:06;;;;;;;39.7;28.7;;;;;;;;;;;;;
2022/03/19 16:41:31;;;;;;;40.8;30;;;;;;;;;;;;;
2022/03/19 16:43:57;;;;;;;43.1;30.6;;;;;;;;;;;;;
2022/03/19 16:46:24;;;;;;;42.5;31.1;;;;;;;;;;;;;
2022/03/19 16:48:48;;;;;;;42.2;30.8;;;;;;;;;;;;;
2022/03/19 16:51:13;;;;;;;43.4;31.8;;;;;;;;;;;;;
2022/03/19 16:53:39;;;;;;;42;31.1;;;;;;;;;;;;;
2022/03/19 16:56:04;;;;;;;42;31.4;;;;;;;;;;;;;
2022/03/19 16:58:29;;;;;;;42.4;31.2;;;;;;;;;;;;;
2022/03/19 17:00:55;;;;;;;44.8;31.7;;;;;;;;;;;;;
2022/03/19 17:03:20;;;;;;;44.9;31.6;;;;;;;;;;;;;
2022/03/19 17:05:45;;;;;;;44.4;32.2;;;;;;;;;;;;;
2022/03/19 17:08:10;;;;;;;42.6;32;;;;;;;;;;;;;
2022/03/19 17:10:36;;;;;;;47.2;34.3;;;;;;;;;;;;;
2022/03/19 17:13:01;;;;;;;43.3;32.2;;;;;;;;;;;;;
2022/03/19 17:15:29;;;;;;;45.2;32.6;;;;;;;;;;;;;
2022/03/19 17:17:54;;;;;;;43.9;33.5;;;;;;;;;;;;;
2022/03/19 17:20:19;;;;;;;45.7;34.6;;;;;;;;;;;;;
2022/03/19 17:22:44;;;;;;;48.8;34.1;;;;;;;;;;;;;
2022/03/19 17:25:09;;;;;;;47;34.3;;;;;;;;;;;;;
2022/03/19 17:27:34;;;;;;;47.2;34.6;;;;;;;;;;;;;
2022/03/19 17:32:24;;;;;;;45.9;34.8;;;;;;;;;;;;;
2022/03/19 17:34:49;;;;;;;44.7;34.7;;;;;;;;;;;;;
2022/03/19 17:37:14;;;;;;;46;34.5;;;;;;;;;;;;;
2022/03/19 17:39:39;;;;;;;47;35.4;;;;;;;;;;;;;
2022/03/19 17:42:04;;;;;;;49.2;35.9;;;;;;;;;;;;;
2022/03/19 17:44:29;;;;;;;49.6;37.1;;;;;;;;;;;;;
2022/03/19 17:46:55;;;;;;;51.2;36;;;;;;;;;;;;;
2022/03/19 17:49:20;;;;;;;47.9;35;;;;;;;;;;;;;
2022/03/19 17:51:45;;;;;;;47.7;35.9;;;;;;;;;;;;;
2022/03/19 17:54:11;;;;;;;47.1;35.9;;;;;;;;;;;;;
2022/03/19 17:56:36;;;;;;;47.7;36.1;;;;;;;;;;;;;
2022/03/19 17:59:03;;;;;;;48.3;36.2;;;;;;;;;;;;;
2022/03/19 18:01:28;;;;;;;46.5;35.2;;;;;;;;;;;;;
2022/03/19 18:03:55;;;;;;;46;36;;;;;;;;;;;;;
2022/03/19 18:06:19;;;;;;;48;36.1;;;;;;;;;;;;;
2022/03/19 18:08:43;;;;;;;48.7;35.8;;;;;;;;;;;;;
2022/03/19 18:11:09;;;;;;;47.3;35.2;;;;;;;;;;;;;
2022/03/19 18:13:48;;;;;;;49.4;36.4;;;;;;;;;;;;;
2022/03/19 18:16:36;;;;;;;47.9;35.6;;;;;;;;;;;;;
2022/03/19 18:19:01;;;;;;;48.6;36;;;;;;;;;;;;;
2022/03/19 18:21:26;;;;;;;54.9;39.8;;;;;;;;;;;;;
2022/03/19 18:23:52;;;;;;;52.3;38.2;;;;;;;;;;;;;
2022/03/19 18:26:17;;;;;;;48.3;36.3;;;;;;;;;;;;;
2022/03/19 18:28:42;;;;;;;48.8;35;;;;;;;;;;;;;
2022/03/19 18:31:09;;;;;;;49.1;36.1;;;;;;;;;;;;;
2022/03/19 18:33:32;;;;;;;48.3;36.8;;;;;;;;;;;;;
2022/03/19 18:35:58;;;;;;;49.9;36.2;;;;;;;;;;;;;
2022/03/19 18:38:23;;;;;;;48.3;36.6;;;;;;;;;;;;;
2022/03/19 18:40:48;;;;;;;49.2;36.3;;;;;;;;;;;;;
2022/03/19 18:43:13;;;;;;;51.6;36.8;;;;;;;;;;;;;